sensor_id;sensor_type;location;lat;lon;timestamp;P1;durP1;ratioP1;P2;durP2;ratioP2
78072;SDS011;67281;48.770;11.440;2023-04-06T00:00:09;10.47;;;7.60;;
78072;SDS011;67281;48.770;11.440;2023-04-06T00:02:37;8.50;;;7.47;;
78072;SDS011;67281;48.770;11.440;2023-04-06T00:05:04;8.70;;;7.37;;
78072;SDS011;67281;48.770;11.440;2023-04-06T00:07:31;9.47;;;6.93;;
78072;SDS011;67281;48.770;11.440;2023-04-06T00:09:59;12.13;;;7.70;;
78072;SDS011;67281;48.770;11.440;2023-04-06T00:12:26;9.93;;;7.07;;
78072;SDS011;67281;48.770;11.440;2023-04-06T00:14:53;8.93;;;7.53;;
78072;SDS011;67281;48.770;11.440;2023-04-06T00:17:20;9.83;;;7.77;;
78072;SDS011;67281;48.770;11.440;2023-04-06T00:19:47;11.93;;;9.43;;
78072;SDS011;67281;48.770;11.440;2023-04-06T00:22:14;10.47;;;9.17;;
78072;SDS011;67281;48.770;11.440;2023-04-06T00:24:41;12.30;;;10.73;;
78072;SDS011;67281;48.770;11.440;2023-04-06T00:27:08;11.10;;;9.80;;
78072;SDS011;67281;48.770;11.440;2023-04-06T00:29:35;14.03;;;10.43;;
78072;SDS011;67281;48.770;11.440;2023-04-06T00:32:03;10.27;;;9.27;;
78072;SDS011;67281;48.770;11.440;2023-04-06T00:34:30;10.53;;;9.20;;
78072;SDS011;67281;48.770;11.440;2023-04-06T00:36:57;11.13;;;9.70;;
78072;SDS011;67281;48.770;11.440;2023-04-06T00:39:23;10.70;;;9.10;;
78072;SDS011;67281;48.770;11.440;2023-04-06T00:41:51;11.10;;;9.70;;
78072;SDS011;67281;48.770;11.440;2023-04-06T00:44:19;13.13;;;9.40;;
78072;SDS011;67281;48.770;11.440;2023-04-06T00:46:47;14.00;;;9.50;;
78072;SDS011;67281;48.770;11.440;2023-04-06T00:49:14;13.67;;;9.70;;
78072;SDS011;67281;48.770;11.440;2023-04-06T00:51:41;11.43;;;8.50;;
78072;SDS011;67281;48.770;11.440;2023-04-06T00:54:07;11.93;;;9.60;;
78072;SDS011;67281;48.770;11.440;2023-04-06T00:56:34;13.63;;;9.87;;
78072;SDS011;67281;48.770;11.440;2023-04-06T00:59:02;9.47;;;8.47;;
78072;SDS011;67281;48.770;11.440;2023-04-06T01:01:29;9.77;;;8.77;;
78072;SDS011;67281;48.770;11.440;2023-04-06T01:03:56;10.83;;;7.77;;
78072;SDS011;67281;48.770;11.440;2023-04-06T01:06:23;9.73;;;7.80;;
78072;SDS011;67281;48.770;11.440;2023-04-06T01:08:49;10.30;;;7.93;;
78072;SDS011;67281;48.770;11.440;2023-04-06T01:11:17;8.53;;;7.50;;
78072;SDS011;67281;48.770;11.440;2023-04-06T01:13:44;8.13;;;6.70;;
78072;SDS011;67281;48.770;11.440;2023-04-06T01:16:11;8.37;;;6.43;;
78072;SDS011;67281;48.770;11.440;2023-04-06T01:18:38;8.30;;;6.43;;
78072;SDS011;67281;48.770;11.440;2023-04-06T01:21:05;8.40;;;6.47;;
78072;SDS011;67281;48.770;11.440;2023-04-06T01:23:35;8.10;;;6.70;;
78072;SDS011;67281;48.770;11.440;2023-04-06T01:26:02;8.37;;;6.27;;
78072;SDS011;67281;48.770;11.440;2023-04-06T01:28:29;8.50;;;7.03;;
78072;SDS011;67281;48.770;11.440;2023-04-06T01:30:55;9.53;;;6.70;;
78072;SDS011;67281;48.770;11.440;2023-04-06T01:33:22;8.10;;;6.50;;
78072;SDS011;67281;48.770;11.440;2023-04-06T01:35:49;10.70;;;6.83;;
78072;SDS011;67281;48.770;11.440;2023-04-06T01:38:17;8.37;;;6.60;;
78072;SDS011;67281;48.770;11.440;2023-04-06T01:40:44;10.37;;;6.30;;
78072;SDS011;67281;48.770;11.440;2023-04-06T01:43:11;7.67;;;6.37;;
78072;SDS011;67281;48.770;11.440;2023-04-06T01:45:37;6.60;;;5.57;;
78072;SDS011;67281;48.770;11.440;2023-04-06T01:48:04;6.73;;;5.23;;
78072;SDS011;67281;48.770;11.440;2023-04-06T01:50:31;7.33;;;6.00;;
78072;SDS011;67281;48.770;11.440;2023-04-06T01:52:58;7.90;;;5.77;;
78072;SDS011;67281;48.770;11.440;2023-04-06T01:55:25;7.63;;;5.40;;
78072;SDS011;67281;48.770;11.440;2023-04-06T01:57:52;8.57;;;6.20;;
78072;SDS011;67281;48.770;11.440;2023-04-06T02:00:19;7.93;;;6.13;;
78072;SDS011;67281;48.770;11.440;2023-04-06T02:02:46;6.60;;;5.90;;
78072;SDS011;67281;48.770;11.440;2023-04-06T02:05:13;7.80;;;6.23;;
78072;SDS011;67281;48.770;11.440;2023-04-06T02:07:40;7.37;;;6.20;;
78072;SDS011;67281;48.770;11.440;2023-04-06T02:10:11;9.67;;;6.60;;
78072;SDS011;67281;48.770;11.440;2023-04-06T02:12:39;15.10;;;8.20;;
78072;SDS011;67281;48.770;11.440;2023-04-06T02:15:06;14.23;;;9.27;;
78072;SDS011;67281;48.770;11.440;2023-04-06T02:17:33;14.53;;;9.80;;
78072;SDS011;67281;48.770;11.440;2023-04-06T02:20:00;14.33;;;10.80;;
78072;SDS011;67281;48.770;11.440;2023-04-06T02:22:27;11.60;;;9.53;;
78072;SDS011;67281;48.770;11.440;2023-04-06T02:24:53;16.17;;;10.40;;
78072;SDS011;67281;48.770;11.440;2023-04-06T02:27:20;14.63;;;10.17;;
78072;SDS011;67281;48.770;11.440;2023-04-06T02:29:47;13.67;;;10.07;;
78072;SDS011;67281;48.770;11.440;2023-04-06T02:32:14;13.53;;;9.73;;
78072;SDS011;67281;48.770;11.440;2023-04-06T02:34:41;9.70;;;7.70;;
78072;SDS011;67281;48.770;11.440;2023-04-06T02:37:08;11.63;;;8.17;;
78072;SDS011;67281;48.770;11.440;2023-04-06T02:39:35;8.67;;;6.93;;
78072;SDS011;67281;48.770;11.440;2023-04-06T02:42:02;9.57;;;6.93;;
78072;SDS011;67281;48.770;11.440;2023-04-06T02:44:29;9.93;;;6.73;;
78072;SDS011;67281;48.770;11.440;2023-04-06T02:46:55;8.30;;;6.07;;
78072;SDS011;67281;48.770;11.440;2023-04-06T02:49:23;8.77;;;6.47;;
78072;SDS011;67281;48.770;11.440;2023-04-06T02:51:49;8.67;;;6.17;;
78072;SDS011;67281;48.770;11.440;2023-04-06T02:54:16;9.00;;;6.20;;
78072;SDS011;67281;48.770;11.440;2023-04-06T02:56:43;9.33;;;5.83;;
78072;SDS011;67281;48.770;11.440;2023-04-06T02:59:10;6.17;;;5.53;;
78072;SDS011;67281;48.770;11.440;2023-04-06T03:01:37;8.50;;;6.23;;
78072;SDS011;67281;48.770;11.440;2023-04-06T03:04:04;11.07;;;6.53;;
78072;SDS011;67281;48.770;11.440;2023-04-06T03:06:31;8.57;;;6.53;;
78072;SDS011;67281;48.770;11.440;2023-04-06T03:08:58;7.93;;;6.27;;
78072;SDS011;67281;48.770;11.440;2023-04-06T03:11:25;6.73;;;5.20;;
78072;SDS011;67281;48.770;11.440;2023-04-06T03:13:52;7.03;;;6.30;;
78072;SDS011;67281;48.770;11.440;2023-04-06T03:16:19;7.27;;;5.87;;
78072;SDS011;67281;48.770;11.440;2023-04-06T03:18:47;9.00;;;6.47;;
78072;SDS011;67281;48.770;11.440;2023-04-06T03:21:14;11.10;;;6.50;;
78072;SDS011;67281;48.770;11.440;2023-04-06T03:23:45;8.27;;;6.70;;
78072;SDS011;67281;48.770;11.440;2023-04-06T03:26:12;9.30;;;6.50;;
78072;SDS011;67281;48.770;11.440;2023-04-06T03:28:39;7.50;;;6.40;;
78072;SDS011;67281;48.770;11.440;2023-04-06T03:31:06;8.00;;;6.93;;
78072;SDS011;67281;48.770;11.440;2023-04-06T03:33:33;8.60;;;6.50;;
78072;SDS011;67281;48.770;11.440;2023-04-06T03:36:00;9.03;;;6.83;;
78072;SDS011;67281;48.770;11.440;2023-04-06T03:38:27;8.43;;;6.70;;
78072;SDS011;67281;48.770;11.440;2023-04-06T03:40:54;8.87;;;6.07;;
78072;SDS011;67281;48.770;11.440;2023-04-06T03:43:21;8.90;;;5.33;;
78072;SDS011;67281;48.770;11.440;2023-04-06T03:45:48;5.40;;;4.90;;
78072;SDS011;67281;48.770;11.440;2023-04-06T03:48:15;6.20;;;5.17;;
78072;SDS011;67281;48.770;11.440;2023-04-06T03:50:41;7.27;;;5.33;;
78072;SDS011;67281;48.770;11.440;2023-04-06T03:53:08;8.57;;;5.27;;
78072;SDS011;67281;48.770;11.440;2023-04-06T03:55:38;7.57;;;5.00;;
78072;SDS011;67281;48.770;11.440;2023-04-06T03:58:06;8.00;;;5.03;;
78072;SDS011;67281;48.770;11.440;2023-04-06T04:00:33;6.83;;;5.97;;
78072;SDS011;67281;48.770;11.440;2023-04-06T04:03:00;9.37;;;5.50;;
78072;SDS011;67281;48.770;11.440;2023-04-06T04:05:28;11.33;;;8.17;;
78072;SDS011;67281;48.770;11.440;2023-04-06T04:07:55;8.93;;;6.20;;
78072;SDS011;67281;48.770;11.440;2023-04-06T04:10:22;8.70;;;5.53;;
78072;SDS011;67281;48.770;11.440;2023-04-06T04:12:49;10.77;;;5.50;;
78072;SDS011;67281;48.770;11.440;2023-04-06T04:15:17;6.30;;;5.30;;
78072;SDS011;67281;48.770;11.440;2023-04-06T04:17:44;7.07;;;5.37;;
78072;SDS011;67281;48.770;11.440;2023-04-06T04:20:13;8.37;;;5.73;;
78072;SDS011;67281;48.770;11.440;2023-04-06T04:22:40;8.97;;;5.30;;
78072;SDS011;67281;48.770;11.440;2023-04-06T04:25:07;6.67;;;4.80;;
78072;SDS011;67281;48.770;11.440;2023-04-06T04:27:35;5.77;;;5.17;;
78072;SDS011;67281;48.770;11.440;2023-04-06T04:30:01;6.30;;;4.87;;
78072;SDS011;67281;48.770;11.440;2023-04-06T04:32:29;7.27;;;5.77;;
78072;SDS011;67281;48.770;11.440;2023-04-06T04:34:56;5.23;;;4.73;;
78072;SDS011;67281;48.770;11.440;2023-04-06T04:37:23;6.67;;;5.40;;
78072;SDS011;67281;48.770;11.440;2023-04-06T04:39:50;5.50;;;4.57;;
78072;SDS011;67281;48.770;11.440;2023-04-06T04:42:16;6.27;;;5.23;;
78072;SDS011;67281;48.770;11.440;2023-04-06T04:44:43;7.50;;;5.27;;
78072;SDS011;67281;48.770;11.440;2023-04-06T04:47:10;11.87;;;5.10;;
78072;SDS011;67281;48.770;11.440;2023-04-06T04:49:37;6.53;;;5.30;;
78072;SDS011;67281;48.770;11.440;2023-04-06T04:52:04;7.67;;;4.20;;
78072;SDS011;67281;48.770;11.440;2023-04-06T04:54:31;6.43;;;4.93;;
78072;SDS011;67281;48.770;11.440;2023-04-06T04:56:57;7.33;;;5.30;;
78072;SDS011;67281;48.770;11.440;2023-04-06T04:59:24;5.60;;;5.00;;
78072;SDS011;67281;48.770;11.440;2023-04-06T05:01:51;7.17;;;5.53;;
78072;SDS011;67281;48.770;11.440;2023-04-06T05:04:21;6.63;;;4.97;;
78072;SDS011;67281;48.770;11.440;2023-04-06T05:06:48;7.73;;;5.07;;
78072;SDS011;67281;48.770;11.440;2023-04-06T05:09:15;7.27;;;5.60;;
78072;SDS011;67281;48.770;11.440;2023-04-06T05:11:43;5.63;;;5.00;;
78072;SDS011;67281;48.770;11.440;2023-04-06T05:14:10;9.43;;;6.10;;
78072;SDS011;67281;48.770;11.440;2023-04-06T05:16:37;7.80;;;5.30;;
78072;SDS011;67281;48.770;11.440;2023-04-06T05:19:04;7.57;;;5.37;;
78072;SDS011;67281;48.770;11.440;2023-04-06T05:21:32;8.00;;;5.40;;
78072;SDS011;67281;48.770;11.440;2023-04-06T05:23:59;12.97;;;6.13;;
78072;SDS011;67281;48.770;11.440;2023-04-06T05:26:26;7.07;;;4.83;;
78072;SDS011;67281;48.770;11.440;2023-04-06T05:28:53;7.10;;;5.50;;
78072;SDS011;67281;48.770;11.440;2023-04-06T05:31:21;10.53;;;5.37;;
78072;SDS011;67281;48.770;11.440;2023-04-06T05:33:48;7.60;;;5.10;;
78072;SDS011;67281;48.770;11.440;2023-04-06T05:36:21;7.77;;;5.40;;
78072;SDS011;67281;48.770;11.440;2023-04-06T05:38:47;8.63;;;4.83;;
78072;SDS011;67281;48.770;11.440;2023-04-06T05:41:16;7.13;;;4.83;;
78072;SDS011;67281;48.770;11.440;2023-04-06T05:43:43;6.53;;;5.17;;
78072;SDS011;67281;48.770;11.440;2023-04-06T05:46:10;6.73;;;5.37;;
78072;SDS011;67281;48.770;11.440;2023-04-06T05:48:37;7.27;;;4.87;;
78072;SDS011;67281;48.770;11.440;2023-04-06T05:51:04;6.77;;;5.40;;
78072;SDS011;67281;48.770;11.440;2023-04-06T05:53:32;6.77;;;4.97;;
78072;SDS011;67281;48.770;11.440;2023-04-06T05:56:02;6.17;;;5.33;;
78072;SDS011;67281;48.770;11.440;2023-04-06T05:58:30;9.20;;;5.43;;
78072;SDS011;67281;48.770;11.440;2023-04-06T06:00:57;8.27;;;5.30;;
78072;SDS011;67281;48.770;11.440;2023-04-06T06:03:24;7.40;;;5.40;;
78072;SDS011;67281;48.770;11.440;2023-04-06T06:05:51;8.07;;;5.53;;
78072;SDS011;67281;48.770;11.440;2023-04-06T06:08:22;8.37;;;5.20;;
78072;SDS011;67281;48.770;11.440;2023-04-06T06:10:49;6.57;;;4.73;;
78072;SDS011;67281;48.770;11.440;2023-04-06T06:13:16;7.13;;;5.13;;
78072;SDS011;67281;48.770;11.440;2023-04-06T06:15:43;8.07;;;5.30;;
78072;SDS011;67281;48.770;11.440;2023-04-06T06:18:10;7.37;;;5.17;;
78072;SDS011;67281;48.770;11.440;2023-04-06T06:20:37;18.03;;;5.50;;
78072;SDS011;67281;48.770;11.440;2023-04-06T06:23:04;5.40;;;4.87;;
78072;SDS011;67281;48.770;11.440;2023-04-06T06:25:34;8.10;;;5.47;;
78072;SDS011;67281;48.770;11.440;2023-04-06T06:28:01;7.87;;;5.30;;
78072;SDS011;67281;48.770;11.440;2023-04-06T06:30:28;10.53;;;5.57;;
78072;SDS011;67281;48.770;11.440;2023-04-06T06:32:55;5.83;;;5.10;;
78072;SDS011;67281;48.770;11.440;2023-04-06T06:35:22;6.70;;;5.07;;
78072;SDS011;67281;48.770;11.440;2023-04-06T06:37:49;7.63;;;5.43;;
78072;SDS011;67281;48.770;11.440;2023-04-06T06:40:16;7.43;;;5.33;;
78072;SDS011;67281;48.770;11.440;2023-04-06T06:42:44;6.90;;;5.23;;
78072;SDS011;67281;48.770;11.440;2023-04-06T06:45:11;8.17;;;5.93;;
78072;SDS011;67281;48.770;11.440;2023-04-06T06:47:38;9.30;;;5.90;;
78072;SDS011;67281;48.770;11.440;2023-04-06T06:50:05;9.03;;;6.23;;
78072;SDS011;67281;48.770;11.440;2023-04-06T06:52:33;9.47;;;5.73;;
78072;SDS011;67281;48.770;11.440;2023-04-06T06:55:00;7.67;;;5.67;;
78072;SDS011;67281;48.770;11.440;2023-04-06T06:57:31;8.67;;;6.10;;
78072;SDS011;67281;48.770;11.440;2023-04-06T06:59:58;8.03;;;5.60;;
78072;SDS011;67281;48.770;11.440;2023-04-06T07:02:26;6.80;;;5.43;;
78072;SDS011;67281;48.770;11.440;2023-04-06T07:04:53;7.17;;;5.90;;
78072;SDS011;67281;48.770;11.440;2023-04-06T07:07:20;6.73;;;5.30;;
78072;SDS011;67281;48.770;11.440;2023-04-06T07:09:47;8.77;;;6.13;;
78072;SDS011;67281;48.770;11.440;2023-04-06T07:12:14;7.40;;;6.10;;
78072;SDS011;67281;48.770;11.440;2023-04-06T07:14:42;7.70;;;5.47;;
78072;SDS011;67281;48.770;11.440;2023-04-06T07:17:09;12.90;;;5.57;;
78072;SDS011;67281;48.770;11.440;2023-04-06T07:19:36;7.53;;;5.90;;
78072;SDS011;67281;48.770;11.440;2023-04-06T07:22:03;11.17;;;6.17;;
78072;SDS011;67281;48.770;11.440;2023-04-06T07:24:31;10.63;;;6.60;;
78072;SDS011;67281;48.770;11.440;2023-04-06T07:27:00;7.87;;;6.43;;
78072;SDS011;67281;48.770;11.440;2023-04-06T07:29:28;11.40;;;5.90;;
78072;SDS011;67281;48.770;11.440;2023-04-06T07:31:55;8.17;;;5.97;;
78072;SDS011;67281;48.770;11.440;2023-04-06T07:34:22;8.00;;;5.70;;
78072;SDS011;67281;48.770;11.440;2023-04-06T07:36:49;7.77;;;5.87;;
78072;SDS011;67281;48.770;11.440;2023-04-06T07:39:16;8.57;;;5.50;;
78072;SDS011;67281;48.770;11.440;2023-04-06T07:41:43;8.40;;;6.90;;
78072;SDS011;67281;48.770;11.440;2023-04-06T07:44:12;11.13;;;6.40;;
78072;SDS011;67281;48.770;11.440;2023-04-06T07:46:42;8.27;;;5.90;;
78072;SDS011;67281;48.770;11.440;2023-04-06T07:49:12;10.00;;;6.83;;
78072;SDS011;67281;48.770;11.440;2023-04-06T07:51:39;7.50;;;5.70;;
78072;SDS011;67281;48.770;11.440;2023-04-06T07:54:06;8.90;;;6.33;;
78072;SDS011;67281;48.770;11.440;2023-04-06T07:56:34;11.53;;;7.03;;
78072;SDS011;67281;48.770;11.440;2023-04-06T07:59:01;9.60;;;6.43;;
78072;SDS011;67281;48.770;11.440;2023-04-06T08:01:29;13.43;;;8.63;;
78072;SDS011;67281;48.770;11.440;2023-04-06T08:03:57;8.37;;;6.67;;
78072;SDS011;67281;48.770;11.440;2023-04-06T08:06:27;9.73;;;6.77;;
78072;SDS011;67281;48.770;11.440;2023-04-06T08:08:55;7.70;;;6.67;;
78072;SDS011;67281;48.770;11.440;2023-04-06T08:11:24;12.40;;;6.63;;
78072;SDS011;67281;48.770;11.440;2023-04-06T08:13:53;9.57;;;6.47;;
78072;SDS011;67281;48.770;11.440;2023-04-06T08:16:23;8.33;;;6.20;;
78072;SDS011;67281;48.770;11.440;2023-04-06T08:18:51;10.37;;;6.60;;
78072;SDS011;67281;48.770;11.440;2023-04-06T08:21:25;12.27;;;7.07;;
78072;SDS011;67281;48.770;11.440;2023-04-06T08:23:55;11.23;;;6.83;;
78072;SDS011;67281;48.770;11.440;2023-04-06T08:26:22;12.70;;;7.43;;
78072;SDS011;67281;48.770;11.440;2023-04-06T08:28:49;11.10;;;6.53;;
78072;SDS011;67281;48.770;11.440;2023-04-06T08:31:16;8.30;;;7.13;;
78072;SDS011;67281;48.770;11.440;2023-04-06T08:33:43;11.13;;;6.47;;
78072;SDS011;67281;48.770;11.440;2023-04-06T08:36:11;8.67;;;7.27;;
78072;SDS011;67281;48.770;11.440;2023-04-06T08:38:40;10.67;;;7.23;;
78072;SDS011;67281;48.770;11.440;2023-04-06T08:41:10;10.00;;;7.70;;
78072;SDS011;67281;48.770;11.440;2023-04-06T08:43:46;8.97;;;6.60;;
78072;SDS011;67281;48.770;11.440;2023-04-06T08:46:14;8.73;;;6.43;;
78072;SDS011;67281;48.770;11.440;2023-04-06T08:48:42;9.00;;;6.77;;
78072;SDS011;67281;48.770;11.440;2023-04-06T08:51:16;9.97;;;7.30;;
78072;SDS011;67281;48.770;11.440;2023-04-06T08:53:45;9.43;;;6.67;;
78072;SDS011;67281;48.770;11.440;2023-04-06T08:56:12;9.67;;;7.13;;
78072;SDS011;67281;48.770;11.440;2023-04-06T08:58:40;10.37;;;7.13;;
78072;SDS011;67281;48.770;11.440;2023-04-06T09:01:09;9.97;;;6.80;;
78072;SDS011;67281;48.770;11.440;2023-04-06T09:03:39;10.80;;;7.60;;
78072;SDS011;67281;48.770;11.440;2023-04-06T09:06:07;8.50;;;6.83;;
78072;SDS011;67281;48.770;11.440;2023-04-06T09:08:35;9.70;;;6.83;;
78072;SDS011;67281;48.770;11.440;2023-04-06T09:11:04;7.23;;;5.97;;
78072;SDS011;67281;48.770;11.440;2023-04-06T09:13:43;8.93;;;6.17;;
78072;SDS011;67281;48.770;11.440;2023-04-06T09:16:15;7.77;;;6.80;;
78072;SDS011;67281;48.770;11.440;2023-04-06T09:18:43;10.43;;;6.80;;
78072;SDS011;67281;48.770;11.440;2023-04-06T09:21:19;9.77;;;6.57;;
78072;SDS011;67281;48.770;11.440;2023-04-06T09:23:58;7.30;;;6.50;;
78072;SDS011;67281;48.770;11.440;2023-04-06T09:26:26;7.63;;;6.73;;
78072;SDS011;67281;48.770;11.440;2023-04-06T09:28:54;7.37;;;6.23;;
78072;SDS011;67281;48.770;11.440;2023-04-06T09:31:23;8.63;;;6.13;;
78072;SDS011;67281;48.770;11.440;2023-04-06T09:33:52;7.43;;;6.13;;
78072;SDS011;67281;48.770;11.440;2023-04-06T09:36:29;6.77;;;6.07;;
78072;SDS011;67281;48.770;11.440;2023-04-06T09:38:58;7.40;;;6.10;;
78072;SDS011;67281;48.770;11.440;2023-04-06T09:41:31;7.13;;;6.07;;
78072;SDS011;67281;48.770;11.440;2023-04-06T09:46:30;6.77;;;5.63;;
78072;SDS011;67281;48.770;11.440;2023-04-06T09:49:12;9.17;;;6.27;;
78072;SDS011;67281;48.770;11.440;2023-04-06T09:51:51;9.00;;;6.90;;
78072;SDS011;67281;48.770;11.440;2023-04-06T09:54:22;8.40;;;5.97;;
78072;SDS011;67281;48.770;11.440;2023-04-06T09:59:40;7.30;;;6.27;;
78072;SDS011;67281;48.770;11.440;2023-04-06T10:02:50;10.73;;;5.97;;
78072;SDS011;67281;48.770;11.440;2023-04-06T10:05:22;7.40;;;5.40;;
78072;SDS011;67281;48.770;11.440;2023-04-06T10:08:08;7.53;;;6.83;;
78072;SDS011;67281;48.770;11.440;2023-04-06T10:10:37;7.90;;;7.10;;
78072;SDS011;67281;48.770;11.440;2023-04-06T10:13:04;7.87;;;7.07;;
78072;SDS011;67281;48.770;11.440;2023-04-06T10:15:32;8.57;;;6.80;;
78072;SDS011;67281;48.770;11.440;2023-04-06T10:18:00;10.77;;;7.27;;
78072;SDS011;67281;48.770;11.440;2023-04-06T10:20:35;11.10;;;6.97;;
78072;SDS011;67281;48.770;11.440;2023-04-06T10:23:11;10.00;;;7.07;;
78072;SDS011;67281;48.770;11.440;2023-04-06T10:26:15;6.93;;;6.23;;
78072;SDS011;67281;48.770;11.440;2023-04-06T10:28:44;8.47;;;6.93;;
78072;SDS011;67281;48.770;11.440;2023-04-06T10:31:13;8.00;;;6.47;;
78072;SDS011;67281;48.770;11.440;2023-04-06T10:33:40;7.43;;;6.73;;
78072;SDS011;67281;48.770;11.440;2023-04-06T10:36:24;8.60;;;6.70;;
78072;SDS011;67281;48.770;11.440;2023-04-06T10:39:01;10.30;;;7.43;;
78072;SDS011;67281;48.770;11.440;2023-04-06T10:41:33;9.53;;;7.27;;
78072;SDS011;67281;48.770;11.440;2023-04-06T10:44:19;8.43;;;7.53;;
78072;SDS011;67281;48.770;11.440;2023-04-06T10:46:58;6.77;;;6.10;;
78072;SDS011;67281;48.770;11.440;2023-04-06T10:49:29;8.27;;;7.17;;
78072;SDS011;67281;48.770;11.440;2023-04-06T10:51:56;8.53;;;7.33;;
78072;SDS011;67281;48.770;11.440;2023-04-06T10:54:24;8.27;;;6.67;;
78072;SDS011;67281;48.770;11.440;2023-04-06T10:56:56;8.93;;;7.07;;
78072;SDS011;67281;48.770;11.440;2023-04-06T10:59:23;9.07;;;6.63;;
78072;SDS011;67281;48.770;11.440;2023-04-06T11:01:51;7.97;;;7.17;;
78072;SDS011;67281;48.770;11.440;2023-04-06T11:04:20;10.47;;;7.70;;
78072;SDS011;67281;48.770;11.440;2023-04-06T11:06:47;7.83;;;7.03;;
78072;SDS011;67281;48.770;11.440;2023-04-06T11:09:24;9.40;;;8.00;;
78072;SDS011;67281;48.770;11.440;2023-04-06T11:11:55;7.73;;;6.83;;
78072;SDS011;67281;48.770;11.440;2023-04-06T11:14:23;8.30;;;7.17;;
78072;SDS011;67281;48.770;11.440;2023-04-06T11:16:50;8.13;;;7.33;;
78072;SDS011;67281;48.770;11.440;2023-04-06T11:19:18;7.93;;;7.13;;
78072;SDS011;67281;48.770;11.440;2023-04-06T11:21:46;9.70;;;7.13;;
78072;SDS011;67281;48.770;11.440;2023-04-06T11:24:15;7.90;;;7.10;;
78072;SDS011;67281;48.770;11.440;2023-04-06T11:29:16;9.47;;;7.80;;
78072;SDS011;67281;48.770;11.440;2023-04-06T11:31:47;8.43;;;7.30;;
78072;SDS011;67281;48.770;11.440;2023-04-06T11:34:16;7.43;;;6.73;;
78072;SDS011;67281;48.770;11.440;2023-04-06T11:36:57;11.77;;;8.20;;
78072;SDS011;67281;48.770;11.440;2023-04-06T11:39:26;7.97;;;7.13;;
78072;SDS011;67281;48.770;11.440;2023-04-06T11:41:56;9.93;;;7.73;;
78072;SDS011;67281;48.770;11.440;2023-04-06T11:44:42;8.40;;;7.37;;
78072;SDS011;67281;48.770;11.440;2023-04-06T11:47:12;8.63;;;6.80;;
78072;SDS011;67281;48.770;11.440;2023-04-06T11:49:40;8.80;;;7.20;;
78072;SDS011;67281;48.770;11.440;2023-04-06T11:52:18;8.70;;;7.80;;
78072;SDS011;67281;48.770;11.440;2023-04-06T11:54:47;8.20;;;7.17;;
78072;SDS011;67281;48.770;11.440;2023-04-06T11:57:15;9.43;;;7.27;;
78072;SDS011;67281;48.770;11.440;2023-04-06T11:59:43;10.37;;;7.00;;
78072;SDS011;67281;48.770;11.440;2023-04-06T12:02:10;7.90;;;6.47;;
78072;SDS011;67281;48.770;11.440;2023-04-06T12:04:37;9.27;;;7.17;;
78072;SDS011;67281;48.770;11.440;2023-04-06T12:07:04;8.20;;;7.30;;
78072;SDS011;67281;48.770;11.440;2023-04-06T12:09:31;7.80;;;6.83;;
78072;SDS011;67281;48.770;11.440;2023-04-06T12:11:58;8.27;;;6.80;;
78072;SDS011;67281;48.770;11.440;2023-04-06T12:14:25;8.87;;;7.10;;
78072;SDS011;67281;48.770;11.440;2023-04-06T12:16:52;9.17;;;7.13;;
78072;SDS011;67281;48.770;11.440;2023-04-06T12:19:18;8.73;;;6.87;;
78072;SDS011;67281;48.770;11.440;2023-04-06T12:21:45;7.10;;;6.40;;
78072;SDS011;67281;48.770;11.440;2023-04-06T12:24:12;9.20;;;7.43;;
78072;SDS011;67281;48.770;11.440;2023-04-06T12:26:39;8.07;;;7.27;;
78072;SDS011;67281;48.770;11.440;2023-04-06T12:29:07;6.97;;;6.27;;
78072;SDS011;67281;48.770;11.440;2023-04-06T12:31:34;9.37;;;6.97;;
78072;SDS011;67281;48.770;11.440;2023-04-06T12:34:03;7.87;;;7.07;;
78072;SDS011;67281;48.770;11.440;2023-04-06T12:36:30;8.37;;;7.20;;
78072;SDS011;67281;48.770;11.440;2023-04-06T12:38:58;8.40;;;7.60;;
78072;SDS011;67281;48.770;11.440;2023-04-06T12:41:25;8.10;;;7.30;;
78072;SDS011;67281;48.770;11.440;2023-04-06T12:43:52;7.63;;;6.70;;
78072;SDS011;67281;48.770;11.440;2023-04-06T12:46:19;9.10;;;6.93;;
78072;SDS011;67281;48.770;11.440;2023-04-06T12:48:46;8.27;;;7.00;;
78072;SDS011;67281;48.770;11.440;2023-04-06T12:51:13;8.90;;;7.10;;
78072;SDS011;67281;48.770;11.440;2023-04-06T12:53:40;9.80;;;6.90;;
78072;SDS011;67281;48.770;11.440;2023-04-06T12:56:11;7.33;;;6.20;;
78072;SDS011;67281;48.770;11.440;2023-04-06T12:58:39;8.40;;;7.33;;
78072;SDS011;67281;48.770;11.440;2023-04-06T13:01:10;6.90;;;6.20;;
78072;SDS011;67281;48.770;11.440;2023-04-06T13:03:42;8.07;;;7.27;;
78072;SDS011;67281;48.770;11.440;2023-04-06T13:06:09;11.37;;;6.83;;
78072;SDS011;67281;48.770;11.440;2023-04-06T13:08:37;8.43;;;7.00;;
78072;SDS011;67281;48.770;11.440;2023-04-06T13:11:05;6.97;;;6.23;;
78072;SDS011;67281;48.770;11.440;2023-04-06T13:13:35;8.23;;;7.20;;
78072;SDS011;67281;48.770;11.440;2023-04-06T13:16:04;7.70;;;7.00;;
78072;SDS011;67281;48.770;11.440;2023-04-06T13:18:33;8.10;;;7.23;;
78072;SDS011;67281;48.770;11.440;2023-04-06T13:21:01;8.97;;;7.67;;
78072;SDS011;67281;48.770;11.440;2023-04-06T13:23:28;8.67;;;7.30;;
78072;SDS011;67281;48.770;11.440;2023-04-06T13:26:01;8.50;;;6.97;;
78072;SDS011;67281;48.770;11.440;2023-04-06T13:28:29;8.53;;;6.60;;
78072;SDS011;67281;48.770;11.440;2023-04-06T13:30:58;8.50;;;7.40;;
78072;SDS011;67281;48.770;11.440;2023-04-06T13:33:26;9.10;;;7.97;;
78072;SDS011;67281;48.770;11.440;2023-04-06T13:35:54;8.47;;;7.40;;
78072;SDS011;67281;48.770;11.440;2023-04-06T13:38:21;10.30;;;7.70;;
78072;SDS011;67281;48.770;11.440;2023-04-06T13:40:48;7.83;;;7.03;;
78072;SDS011;67281;48.770;11.440;2023-04-06T13:43:16;8.97;;;8.03;;
78072;SDS011;67281;48.770;11.440;2023-04-06T13:45:49;8.90;;;7.53;;
78072;SDS011;67281;48.770;11.440;2023-04-06T13:48:17;9.03;;;7.93;;
78072;SDS011;67281;48.770;11.440;2023-04-06T13:50:45;8.50;;;7.57;;
78072;SDS011;67281;48.770;11.440;2023-04-06T13:53:12;9.07;;;7.80;;
78072;SDS011;67281;48.770;11.440;2023-04-06T13:55:40;8.23;;;6.83;;
78072;SDS011;67281;48.770;11.440;2023-04-06T13:58:07;8.63;;;7.57;;
78072;SDS011;67281;48.770;11.440;2023-04-06T14:00:34;8.60;;;7.77;;
78072;SDS011;67281;48.770;11.440;2023-04-06T14:03:02;8.27;;;7.40;;
78072;SDS011;67281;48.770;11.440;2023-04-06T14:05:32;8.17;;;7.33;;
78072;SDS011;67281;48.770;11.440;2023-04-06T14:07:59;12.57;;;7.67;;
78072;SDS011;67281;48.770;11.440;2023-04-06T14:10:27;8.77;;;7.83;;
78072;SDS011;67281;48.770;11.440;2023-04-06T14:12:54;8.97;;;7.77;;
78072;SDS011;67281;48.770;11.440;2023-04-06T14:15:22;8.07;;;7.10;;
78072;SDS011;67281;48.770;11.440;2023-04-06T14:17:50;8.80;;;7.43;;
78072;SDS011;67281;48.770;11.440;2023-04-06T14:20:18;10.70;;;7.33;;
78072;SDS011;67281;48.770;11.440;2023-04-06T14:22:45;9.27;;;8.13;;
78072;SDS011;67281;48.770;11.440;2023-04-06T14:25:13;10.60;;;8.83;;
78072;SDS011;67281;48.770;11.440;2023-04-06T14:27:39;8.83;;;7.93;;
78072;SDS011;67281;48.770;11.440;2023-04-06T14:30:07;9.70;;;7.83;;
78072;SDS011;67281;48.770;11.440;2023-04-06T14:32:35;9.33;;;8.20;;
78072;SDS011;67281;48.770;11.440;2023-04-06T14:35:06;8.73;;;7.63;;
78072;SDS011;67281;48.770;11.440;2023-04-06T14:37:34;10.00;;;8.03;;
78072;SDS011;67281;48.770;11.440;2023-04-06T14:40:01;8.10;;;7.30;;
78072;SDS011;67281;48.770;11.440;2023-04-06T14:42:29;9.30;;;8.30;;
78072;SDS011;67281;48.770;11.440;2023-04-06T14:44:56;8.43;;;7.50;;